Time;durP1;ratioP1;P1;durP2;ratioP2;P2;SDS_P1;SDS_P2;PMS_P1;PMS_P2;Temp;Humidity;BMP_temperature;BMP_pressure;BME280_temperature;BME280_humidity;BME280_pressure;Samples;Min_cycle;Max_cycle;Signal;HPM_P1;HPM_P2
2023/10/04 00:01:25;;;;;;;;;;;15.30;99.90;;;;;;7613030;19;19932;-80
2023/10/04 00:03:57;;;;;;;;;;;15.30;99.90;;;;;;7605795;19;19953;-81
2023/10/04 00:06:33;;;;;;;;;;;15.30;99.90;;;;;;7607853;19;20285;-80
2023/10/04 00:09:05;;;;;;;;;;;15.30;99.90;;;;;;7602663;19;20736;-80
2023/10/04 00:11:38;;;;;;;;;;;15.30;99.90;;;;;;7602356;19;19926;-80
2023/10/04 00:14:10;;;;;;;;;;;15.30;99.90;;;;;;7600497;19;19920;-80
2023/10/04 00:16:42;;;;;;;;;;;15.30;99.90;;;;;;7597652;19;19929;-80
2023/10/04 00:19:14;;;;;;;;;;;15.20;99.90;;;;;;7597982;19;19982;-80
2023/10/04 00:21:47;;;;;;;;;;;15.20;99.90;;;;;;7597783;19;20353;-80
2023/10/04 00:24:20;;;;;;;;;;;15.00;99.90;;;;;;7595961;19;19926;-79
2023/10/04 00:26:53;;;;;;;;;;;14.90;99.90;;;;;;7596879;19;19923;-79
2023/10/04 00:29:25;;;;;;;;;;;15.00;99.90;;;;;;7595366;19;19931;-79
2023/10/04 00:31:58;;;;;;;;;;;15.00;99.90;;;;;;7596970;19;19935;-79
2023/10/04 00:34:30;;;;;;;;;;;15.00;99.90;;;;;;7597291;19;20261;-80
2023/10/04 00:37:02;;;;;;;;;;;15.00;99.90;;;;;;7594437;19;19919;-79
2023/10/04 00:39:34;;;;;;;;;;;14.90;99.90;;;;;;7591494;19;20001;-79
2023/10/04 00:42:06;;;;;;;;;;;14.90;99.90;;;;;;7588839;19;19942;-80
2023/10/04 00:44:38;;;;;;;;;;;14.90;99.90;;;;;;7597694;19;20017;-80
2023/10/04 00:47:11;;;;;;;;;;;14.80;99.90;;;;;;7593708;19;20892;-80
2023/10/04 00:49:45;;;;;;;;;;;14.70;99.90;;;;;;7596240;19;20369;-79
2023/10/04 00:52:19;;;;;;;;;;;14.80;99.90;;;;;;7590698;19;19915;-80
2023/10/04 00:54:51;;;;;;;;;;;14.70;99.90;;;;;;7587603;19;19998;-79
2023/10/04 00:57:23;;;;;;;;;;;14.60;99.90;;;;;;7589597;19;19982;-80
2023/10/04 00:59:56;;;;;;;;;;;14.60;99.90;;;;;;7590536;19;20530;-80
2023/10/04 01:02:28;;;;;;;;;;;14.60;99.90;;;;;;7590054;19;19923;-79
2023/10/04 01:05:01;;;;;;;;;;;14.70;99.90;;;;;;7593595;19;19944;-80
2023/10/04 01:07:35;;;;;;;;;;;14.70;99.90;;;;;;7591754;19;19925;-80
2023/10/04 01:10:14;;;;;;;;;;;14.60;99.90;;;;;;7589523;19;24740;-79
2023/10/04 01:12:49;;;;;;;;;;;14.60;99.90;;;;;;7589830;19;19918;-79
2023/10/04 01:15:31;;;;;;;;;;;14.60;99.90;;;;;;7595265;19;19918;-79
2023/10/04 01:18:11;;;;;;;;;;;14.50;99.90;;;;;;7586628;19;19919;-80
2023/10/04 01:20:45;;;;;;;;;;;14.50;99.90;;;;;;7587614;19;19922;-80
2023/10/04 01:23:18;;;;;;;;;;;14.50;99.90;;;;;;7588552;19;19919;-79
2023/10/04 01:25:50;;;;;;;;;;;14.20;99.90;;;;;;7588000;19;20610;-79
2023/10/04 01:28:30;;;;;;;;;;;14.20;99.90;;;;;;7588549;19;19915;-79
2023/10/04 01:31:03;;;;;;;;;;;14.20;99.90;;;;;;7586925;19;20305;-79
2023/10/04 01:33:35;;;;;;;;;;;14.10;99.90;;;;;;7587897;19;19919;-79
2023/10/04 01:36:07;;;;;;;;;;;14.00;99.90;;;;;;7592803;19;20684;-79
2023/10/04 01:38:40;;;;;;;;;;;13.90;99.90;;;;;;7598876;19;20087;-79
2023/10/04 01:41:14;;;;;;;;;;;13.90;99.90;;;;;;7601586;19;19930;-79
2023/10/04 01:43:48;;;;;;;;;;;13.80;99.90;;;;;;7602687;19;19939;-80
2023/10/04 01:46:20;;;;;;;;;;;13.60;99.90;;;;;;7602962;19;20041;-80
2023/10/04 01:48:54;;;;;;;;;;;13.50;99.90;;;;;;7604845;19;19951;-79
2023/10/04 01:51:26;;;;;;;;;;;13.50;99.90;;;;;;7589852;19;19927;-79
2023/10/04 01:54:03;;;;;;;;;;;13.60;99.90;;;;;;7595896;19;19998;-79
2023/10/04 01:56:37;;;;;;;;;;;13.60;99.90;;;;;;7582515;19;19926;-79
2023/10/04 01:59:13;;;;;;;;;;;13.40;99.90;;;;;;7589950;19;21666;-79
2023/10/04 02:01:46;;;;;;;;;;;13.30;99.90;;;;;;7592123;19;19967;-79
2023/10/04 02:04:19;;;;;;;;;;;13.30;99.90;;;;;;7583792;19;19953;-79
2023/10/04 02:06:51;;;;;;;;;;;13.20;99.90;;;;;;7591136;19;19922;-78
2023/10/04 02:09:23;;;;;;;;;;;13.20;99.90;;;;;;7587658;19;19964;-79
2023/10/04 02:11:55;;;;;;;;;;;13.20;99.90;;;;;;7588514;19;19918;-80
2023/10/04 02:14:32;;;;;;;;;;;13.20;99.90;;;;;;7598518;19;20002;-80
2023/10/04 02:17:08;;;;;;;;;;;13.20;99.90;;;;;;7596267;19;19932;-78
2023/10/04 02:19:40;;;;;;;;;;;13.10;99.90;;;;;;7594175;19;19926;-80
2023/10/04 02:22:12;;;;;;;;;;;13.00;99.90;;;;;;7600043;19;20252;-80
2023/10/04 02:24:44;;;;;;;;;;;12.80;99.90;;;;;;7594821;19;19949;-80
2023/10/04 02:27:18;;;;;;;;;;;12.90;99.90;;;;;;7598805;19;19926;-80
2023/10/04 02:29:51;;;;;;;;;;;12.80;99.90;;;;;;7596179;19;20533;-80
2023/10/04 02:32:25;;;;;;;;;;;12.60;99.90;;;;;;7598229;19;20572;-80
2023/10/04 02:34:59;;;;;;;;;;;12.60;99.90;;;;;;7593249;19;19942;-80
2023/10/04 02:37:32;;;;;;;;;;;12.70;99.90;;;;;;7596798;19;19915;-80
2023/10/04 02:40:14;;;;;;;;;;;12.70;99.90;;;;;;7598487;19;19922;-80
2023/10/04 02:42:47;;;;;;;;;;;12.70;99.90;;;;;;7598468;19;19918;-80
2023/10/04 02:45:20;;;;;;;;;;;12.80;99.90;;;;;;7602200;19;21533;-80
2023/10/04 02:47:53;;;;;;;;;;;12.80;99.90;;;;;;7594073;19;19943;-80
2023/10/04 02:50:26;;;;;;;;;;;12.80;99.90;;;;;;7591712;19;19940;-80
2023/10/04 02:52:58;;;;;;;;;;;12.80;99.90;;;;;;7599924;19;19923;-80
2023/10/04 02:55:32;;;;;;;;;;;12.80;99.90;;;;;;7587686;19;19950;-79
2023/10/04 02:58:06;;;;;;;;;;;12.80;99.90;;;;;;7599091;19;19956;-79
2023/10/04 03:00:43;;;;;;;;;;;12.70;99.90;;;;;;7587250;19;19921;-80
2023/10/04 03:03:22;;;;;;;;;;;12.40;99.90;;;;;;7600442;19;19957;-80
2023/10/04 03:05:57;;;;;;;;;;;12.50;99.90;;;;;;7609433;19;19955;-79
2023/10/04 03:08:32;;;;;;;;;;;12.50;99.90;;;;;;7609915;19;19926;-80
2023/10/04 03:11:07;;;;;;;;;;;12.50;99.90;;;;;;7600719;19;20440;-80
2023/10/04 03:13:41;;;;;;;;;;;12.50;99.90;;;;;;7614394;19;20002;-80
2023/10/04 03:16:14;;;;;;;;;;;12.40;99.90;;;;;;7611417;19;20235;-79
2023/10/04 03:18:47;;;;;;;;;;;12.50;99.90;;;;;;7613969;19;20418;-79
2023/10/04 03:21:26;;;;;;;;;;;12.40;99.90;;;;;;7598840;19;20006;-80
2023/10/04 03:23:58;;;;;;;;;;;12.40;99.90;;;;;;7601964;19;20688;-80
2023/10/04 03:26:30;;;;;;;;;;;12.30;99.90;;;;;;7598746;19;19947;-80
2023/10/04 03:29:04;;;;;;;;;;;12.40;99.90;;;;;;7593979;19;20373;-79
2023/10/04 03:31:37;;;;;;;;;;;12.30;99.90;;;;;;7596039;19;19922;-79
2023/10/04 03:34:09;;;;;;;;;;;12.20;99.90;;;;;;7598566;19;19911;-79
2023/10/04 03:36:46;;;;;;;;;;;12.20;99.90;;;;;;7598405;19;19966;-81
2023/10/04 03:39:25;;;;;;;;;;;12.20;99.90;;;;;;7591286;19;19914;-79
2023/10/04 03:41:58;;;;;;;;;;;12.10;99.90;;;;;;7594474;19;19919;-80
2023/10/04 03:44:31;;;;;;;;;;;12.00;99.90;;;;;;7597035;19;20363;-80
2023/10/04 03:47:06;;;;;;;;;;;11.80;99.90;;;;;;7598128;19;20418;-81
2023/10/04 03:49:39;;;;;;;;;;;11.90;99.90;;;;;;7592554;19;19918;-81
2023/10/04 03:52:12;;;;;;;;;;;11.80;99.90;;;;;;7592551;19;19929;-80
2023/10/04 03:54:45;;;;;;;;;;;11.80;99.90;;;;;;7588092;19;19932;-80
2023/10/04 03:57:19;;;;;;;;;;;11.90;99.90;;;;;;7595175;19;19958;-79
2023/10/04 03:59:51;;;;;;;;;;;11.80;99.90;;;;;;7595532;19;19945;-79
2023/10/04 04:02:23;;;;;;;;;;;11.70;99.90;;;;;;7598780;19;19956;-79
2023/10/04 04:04:56;;;;;;;;;;;11.70;99.90;;;;;;7595574;19;19919;-80
2023/10/04 04:07:28;;;;;;;;;;;11.60;99.90;;;;;;7593831;19;19915;-81
2023/10/04 04:10:07;;;;;;;;;;;11.50;99.90;;;;;;7601060;19;19925;-79
2023/10/04 04:12:40;;;;;;;;;;;11.60;99.90;;;;;;7597875;19;19970;-79
2023/10/04 04:15:14;;;;;;;;;;;11.60;99.90;;;;;;7598315;19;19930;-80
2023/10/04 04:17:48;;;;;;;;;;;11.50;99.90;;;;;;7596325;19;21546;-79
2023/10/04 04:20:23;;;;;;;;;;;11.50;99.90;;;;;;7593863;19;19923;-80
2023/10/04 04:22:55;;;;;;;;;;;11.60;99.90;;;;;;7601022;19;19922;-80
2023/10/04 04:25:29;;;;;;;;;;;11.50;99.90;;;;;;7580338;19;19918;-79
2023/10/04 04:28:03;;;;;;;;;;;11.40;99.90;;;;;;7585257;19;19926;-79
2023/10/04 04:30:36;;;;;;;;;;;11.30;99.90;;;;;;7586827;19;19958;-79
2023/10/04 04:33:12;;;;;;;;;;;11.20;99.90;;;;;;7597310;19;20315;-80
2023/10/04 04:38:24;;;;;;;;;;;11.20;99.90;;;;;;7575760;19;19922;-79
2023/10/04 04:40:57;;;;;;;;;;;11.00;99.90;;;;;;7578759;19;19928;-80
2023/10/04 04:43:37;;;;;;;;;;;11.00;99.90;;;;;;7584982;19;21484;-79
2023/10/04 04:46:16;;;;;;;;;;;11.10;99.90;;;;;;7573651;19;19986;-78
2023/10/04 04:48:50;;;;;;;;;;;11.00;99.90;;;;;;7584490;19;19922;-78
2023/10/04 04:51:24;;;;;;;;;;;11.00;99.90;;;;;;7563329;19;20087;-79
2023/10/04 04:53:58;;;;;;;;;;;10.90;99.90;;;;;;7586201;19;20734;-78
2023/10/04 04:56:35;;;;;;;;;;;10.90;99.90;;;;;;7572903;19;20433;-78
2023/10/04 04:59:14;;;;;;;;;;;11.00;99.90;;;;;;7585677;19;19971;-78
2023/10/04 05:01:46;;;;;;;;;;;10.90;99.90;;;;;;7580235;19;19915;-79
2023/10/04 05:04:19;;;;;;;;;;;10.80;99.90;;;;;;7587745;19;19939;-79
2023/10/04 05:06:51;;;;;;;;;;;11.00;99.90;;;;;;7597073;19;19954;-80
2023/10/04 05:09:23;;;;;;;;;;;11.00;99.90;;;;;;7585142;19;19917;-79
2023/10/04 05:11:55;;;;;;;;;;;11.10;99.90;;;;;;7599343;19;19957;-80
2023/10/04 05:14:27;;;;;;;;;;;11.00;99.90;;;;;;7574938;19;19926;-78
2023/10/04 05:16:59;;;;;;;;;;;10.90;99.90;;;;;;7580743;19;21008;-78
2023/10/04 05:19:31;;;;;;;;;;;10.90;99.90;;;;;;7582105;19;19947;-79
2023/10/04 05:22:05;;;;;;;;;;;10.90;99.90;;;;;;7581182;19;19922;-78
2023/10/04 05:24:37;;;;;;;;;;;10.90;99.90;;;;;;7575109;19;19922;-78
2023/10/04 05:27:09;;;;;;;;;;;11.00;99.90;;;;;;7581875;19;19910;-78
2023/10/04 05:29:41;;;;;;;;;;;10.90;99.90;;;;;;7573568;19;19925;-79
2023/10/04 05:32:13;;;;;;;;;;;10.90;99.90;;;;;;7587522;19;20522;-78
2023/10/04 05:34:48;;;;;;;;;;;11.00;99.90;;;;;;7595990;19;19926;-79
2023/10/04 05:37:20;;;;;;;;;;;11.00;99.90;;;;;;7575493;19;19919;-77
2023/10/04 05:39:52;;;;;;;;;;;11.00;99.90;;;;;;7600789;19;21964;-78
2023/10/04 05:42:25;;;;;;;;;;;11.10;99.90;;;;;;7598613;19;19922;-79
2023/10/04 05:44:57;;;;;;;;;;;11.10;99.90;;;;;;7600421;19;19956;-78
2023/10/04 05:47:30;;;;;;;;;;;11.10;99.90;;;;;;7581708;19;19922;-79
2023/10/04 05:50:05;;;;;;;;;;;11.20;99.90;;;;;;7596461;19;19919;-79
2023/10/04 05:52:39;;;;;;;;;;;11.20;99.90;;;;;;7606379;19;19922;-78
2023/10/04 05:55:11;;;;;;;;;;;11.10;99.90;;;;;;7613190;19;19922;-78
2023/10/04 05:57:47;;;;;;;;;;;11.20;99.90;;;;;;7608657;19;20384;-78
2023/10/04 06:00:24;;;;;;;;;;;11.20;99.90;;;;;;7608664;19;20496;-78
2023/10/04 06:02:58;;;;;;;;;;;11.30;99.90;;;;;;7610392;19;20010;-78
2023/10/04 06:05:33;;;;;;;;;;;11.30;99.90;;;;;;7605773;19;19922;-78
2023/10/04 06:08:06;;;;;;;;;;;11.20;99.90;;;;;;7606188;19;19927;-79
2023/10/04 06:10:38;;;;;;;;;;;11.00;99.90;;;;;;7600022;19;19927;-78
2023/10/04 06:13:14;;;;;;;;;;;11.00;99.90;;;;;;7617610;19;19921;-79
2023/10/04 06:15:47;;;;;;;;;;;11.10;99.90;;;;;;7603974;19;19956;-78
2023/10/04 06:18:22;;;;;;;;;;;11.20;99.90;;;;;;7607741;19;20939;-78
2023/10/04 06:20:55;;;;;;;;;;;11.20;99.90;;;;;;7608761;19;19915;-79
2023/10/04 06:23:30;;;;;;;;;;;11.30;99.90;;;;;;7606743;19;20393;-79
2023/10/04 06:26:05;;;;;;;;;;;11.40;99.90;;;;;;7607080;19;20004;-78
2023/10/04 06:28:37;;;;;;;;;;;11.40;99.90;;;;;;7601934;19;21027;-79
2023/10/04 06:31:10;;;;;;;;;;;11.50;99.90;;;;;;7606882;19;19922;-77
2023/10/04 06:33:42;;;;;;;;;;;11.60;99.90;;;;;;7600493;19;19922;-79
2023/10/04 06:36:15;;;;;;;;;;;11.70;99.90;;;;;;7613760;19;19946;-79
2023/10/04 06:38:48;;;;;;;;;;;11.70;99.90;;;;;;7599991;19;19960;-79
2023/10/04 06:41:25;;;;;;;;;;;11.80;99.90;;;;;;7603419;19;19919;-78
2023/10/04 06:43:57;;;;;;;;;;;11.90;99.90;;;;;;7601756;19;19986;-79
2023/10/04 06:46:29;;;;;;;;;;;12.00;99.90;;;;;;7601137;19;20000;-79
2023/10/04 06:49:02;;;;;;;;;;;12.10;99.90;;;;;;7599347;19;19919;-78
2023/10/04 06:51:35;;;;;;;;;;;12.20;99.90;;;;;;7588598;19;19930;-77
2023/10/04 06:54:07;;;;;;;;;;;12.30;99.90;;;;;;7601678;19;19922;-78
2023/10/04 06:56:39;;;;;;;;;;;12.40;99.90;;;;;;7600094;19;20721;-78
2023/10/04 06:59:12;;;;;;;;;;;12.60;99.90;;;;;;7596221;19;19923;-79
2023/10/04 07:01:45;;;;;;;;;;;12.80;99.90;;;;;;7602534;19;19982;-79
2023/10/04 07:04:18;;;;;;;;;;;12.80;99.90;;;;;;7599344;19;19925;-77
2023/10/04 07:06:51;;;;;;;;;;;12.90;99.90;;;;;;7595401;19;19958;-77
2023/10/04 07:09:23;;;;;;;;;;;13.00;99.90;;;;;;7592648;19;19922;-79
2023/10/04 07:11:56;;;;;;;;;;;13.00;99.90;;;;;;7611581;19;19926;-79
2023/10/04 07:14:29;;;;;;;;;;;13.10;99.90;;;;;;7623639;19;19918;-78
2023/10/04 07:17:02;;;;;;;;;;;13.30;99.90;;;;;;7612153;19;19920;-78
2023/10/04 07:19:35;;;;;;;;;;;13.40;99.90;;;;;;7600422;19;19948;-78
2023/10/04 07:22:07;;;;;;;;;;;13.60;99.90;;;;;;7612394;19;19954;-78
2023/10/04 07:24:40;;;;;;;;;;;13.70;99.90;;;;;;7602483;19;19923;-79
2023/10/04 07:27:12;;;;;;;;;;;13.90;99.90;;;;;;7613907;19;20466;-78
2023/10/04 07:29:45;;;;;;;;;;;14.00;99.90;;;;;;7600338;19;19918;-79
2023/10/04 07:32:17;;;;;;;;;;;14.10;99.90;;;;;;7609010;19;19918;-79
2023/10/04 07:34:49;;;;;;;;;;;14.00;99.90;;;;;;7601491;19;19915;-79
2023/10/04 07:37:22;;;;;;;;;;;14.20;99.90;;;;;;7612003;19;19919;-79
2023/10/04 07:39:54;;;;;;;;;;;14.40;99.90;;;;;;7605555;19;19960;-79
2023/10/04 07:42:27;;;;;;;;;;;14.40;99.90;;;;;;7608140;19;19955;-78
2023/10/04 07:44:59;;;;;;;;;;;14.60;99.90;;;;;;7610234;19;20011;-79
2023/10/04 07:47:33;;;;;;;;;;;14.60;99.90;;;;;;7604651;19;20953;-79
2023/10/04 07:50:09;;;;;;;;;;;14.90;99.90;;;;;;7603575;19;19918;-79
2023/10/04 07:52:42;;;;;;;;;;;14.90;99.90;;;;;;7598964;19;19943;-79
2023/10/04 07:55:18;;;;;;;;;;;15.10;99.90;;;;;;7601529;19;20345;-79
2023/10/04 07:57:50;;;;;;;;;;;15.20;99.90;;;;;;7594289;19;20014;-78
2023/10/04 08:00:23;;;;;;;;;;;15.20;99.90;;;;;;7596627;19;19939;-79
2023/10/04 08:02:57;;;;;;;;;;;15.20;99.90;;;;;;7589838;19;20027;-79
2023/10/04 08:05:31;;;;;;;;;;;15.30;99.90;;;;;;7592661;19;20028;-79
2023/10/04 08:08:04;;;;;;;;;;;15.20;99.90;;;;;;7598217;19;19922;-78
2023/10/04 08:10:39;;;;;;;;;;;15.20;99.90;;;;;;7586842;19;19911;-79
2023/10/04 08:13:13;;;;;;;;;;;15.20;99.90;;;;;;7592951;19;19924;-79
2023/10/04 08:15:46;;;;;;;;;;;15.20;99.90;;;;;;7584476;19;19989;-80
2023/10/04 08:18:23;;;;;;;;;;;15.20;99.90;;;;;;7590458;19;19919;-79
2023/10/04 08:20:57;;;;;;;;;;;15.40;99.90;;;;;;7575966;19;19918;-79
2023/10/04 08:23:29;;;;;;;;;;;15.50;99.90;;;;;;7597523;19;20522;-79
2023/10/04 08:26:11;;;;;;;;;;;15.40;99.90;;;;;;7594105;19;19947;-80
2023/10/04 08:28:44;;;;;;;;;;;15.60;99.90;;;;;;7565173;19;19910;-79
2023/10/04 08:31:18;;;;;;;;;;;15.40;99.90;;;;;;7587769;19;20810;-78
2023/10/04 08:33:51;;;;;;;;;;;15.40;99.90;;;;;;7580670;19;19953;-77
2023/10/04 08:36:23;;;;;;;;;;;15.40;99.90;;;;;;7576425;19;19919;-78
2023/10/04 08:38:55;;;;;;;;;;;15.40;99.90;;;;;;7586064;19;20436;-79
2023/10/04 08:41:27;;;;;;;;;;;15.60;99.90;;;;;;7585234;19;25061;-79
2023/10/04 08:43:59;;;;;;;;;;;15.80;99.90;;;;;;7593685;19;19919;-78
2023/10/04 08:46:32;;;;;;;;;;;15.80;99.90;;;;;;7592400;19;20342;-79
2023/10/04 08:49:07;;;;;;;;;;;15.80;99.90;;;;;;7579576;19;19956;-79
2023/10/04 08:51:48;;;;;;;;;;;15.90;99.90;;;;;;7587313;19;20028;-78
2023/10/04 08:54:22;;;;;;;;;;;15.90;99.90;;;;;;7583848;19;19975;-78
2023/10/04 08:56:54;;;;;;;;;;;15.90;99.90;;;;;;7575715;19;19925;-79
2023/10/04 08:59:26;;;;;;;;;;;15.80;99.90;;;;;;7587212;19;19922;-79
2023/10/04 09:01:59;;;;;;;;;;;15.80;99.90;;;;;;7580766;19;19919;-79
2023/10/04 09:04:32;;;;;;;;;;;15.90;99.90;;;;;;7580355;19;19953;-79
2023/10/04 09:07:10;;;;;;;;;;;16.00;99.90;;;;;;7593413;19;19919;-79
2023/10/04 09:09:45;;;;;;;;;;;16.10;99.90;;;;;;7580654;19;19989;-78
2023/10/04 09:12:17;;;;;;;;;;;16.20;99.90;;;;;;7584185;19;19925;-78
2023/10/04 09:14:50;;;;;;;;;;;16.20;99.90;;;;;;7579196;19;20874;-79
2023/10/04 09:17:25;;;;;;;;;;;16.30;99.90;;;;;;7578482;19;20267;-78
2023/10/04 09:20:10;;;;;;;;;;;16.20;99.90;;;;;;7574328;19;19919;-78
2023/10/04 09:22:42;;;;;;;;;;;16.40;99.90;;;;;;7581396;19;27624;-79
2023/10/04 09:25:16;;;;;;;;;;;16.30;99.90;;;;;;7592070;19;19911;-78
2023/10/04 09:27:53;;;;;;;;;;;16.30;99.90;;;;;;7594374;19;19922;-78
2023/10/04 09:30:28;;;;;;;;;;;16.60;99.90;;;;;;7596828;19;19930;-78
2023/10/04 09:33:02;;;;;;;;;;;16.60;99.90;;;;;;7585059;19;20246;-78
2023/10/04 09:35:44;;;;;;;;;;;16.70;99.90;;;;;;7578086;19;19918;-77
2023/10/04 09:38:18;;;;;;;;;;;16.80;99.90;;;;;;7572814;19;20002;-77
2023/10/04 09:40:55;;;;;;;;;;;16.80;99.90;;;;;;7572745;19;19923;-77
2023/10/04 09:43:35;;;;;;;;;;;16.80;99.90;;;;;;7577732;19;20006;-77
2023/10/04 09:46:12;;;;;;;;;;;16.70;99.90;;;;;;7598182;19;20878;-79
2023/10/04 09:48:45;;;;;;;;;;;16.80;99.90;;;;;;7593175;19;19985;-77
2023/10/04 09:51:19;;;;;;;;;;;17.00;99.90;;;;;;7600646;19;20042;-78
2023/10/04 09:53:52;;;;;;;;;;;17.00;99.90;;;;;;7589819;19;20438;-78
2023/10/04 09:56:24;;;;;;;;;;;16.80;99.90;;;;;;7597860;19;19922;-77
2023/10/04 09:58:58;;;;;;;;;;;16.80;99.90;;;;;;7574016;19;19934;-77
2023/10/04 10:01:30;;;;;;;;;;;16.80;99.90;;;;;;7587280;19;19927;-77
2023/10/04 10:04:07;;;;;;;;;;;16.70;99.90;;;;;;7594293;19;21223;-78
2023/10/04 10:06:45;;;;;;;;;;;16.80;99.90;;;;;;7598077;19;19941;-78
2023/10/04 10:09:19;;;;;;;;;;;16.80;99.90;;;;;;7589639;19;20306;-78
2023/10/04 10:11:53;;;;;;;;;;;16.90;99.90;;;;;;7582908;19;19927;-78
2023/10/04 10:14:26;;;;;;;;;;;17.00;99.90;;;;;;7601003;19;20005;-78
2023/10/04 10:16:58;;;;;;;;;;;17.10;99.90;;;;;;7596348;19;19927;-78
2023/10/04 10:19:31;;;;;;;;;;;17.20;99.90;;;;;;7598615;19;20551;-77
2023/10/04 10:22:05;;;;;;;;;;;17.30;99.90;;;;;;7599910;19;20870;-77
2023/10/04 10:24:44;;;;;;;;;;;17.40;99.90;;;;;;7593449;19;19919;-77
2023/10/04 10:27:21;;;;;;;;;;;17.40;99.90;;;;;;7603266;19;19930;-78
2023/10/04 10:29:53;;;;;;;;;;;17.40;99.90;;;;;;7599983;19;19938;-78
2023/10/04 10:32:26;;;;;;;;;;;17.50;99.90;;;;;;7600351;19;19959;-78
2023/10/04 10:35:06;;;;;;;;;;;17.50;99.70;;;;;;7611531;19;20495;-77
2023/10/04 10:37:38;;;;;;;;;;;17.50;99.90;;;;;;7613157;19;20298;-76
2023/10/04 10:40:31;;;;;;;;;;;17.70;99.90;;;;;;7615073;19;19950;-78
2023/10/04 10:43:10;;;;;;;;;;;17.70;99.90;;;;;;7607209;19;19952;-77
2023/10/04 10:45:42;;;;;;;;;;;17.80;99.90;;;;;;7599262;19;19923;-78
2023/10/04 10:48:14;;;;;;;;;;;17.80;99.90;;;;;;7610100;19;20458;-78
2023/10/04 10:50:48;;;;;;;;;;;17.90;99.90;;;;;;7607293;19;19994;-76
2023/10/04 10:53:20;;;;;;;;;;;18.00;99.60;;;;;;7607879;19;19966;-77
2023/10/04 10:59:34;;;;;;;;;;;17.90;98.80;;;;;;7575773;19;19911;-77
2023/10/04 11:02:07;;;;;;;;;;;18.00;98.90;;;;;;7598521;19;19911;-77
2023/10/04 11:04:39;;;;;;;;;;;18.20;98.40;;;;;;7592621;19;19954;-77
2023/10/04 11:07:11;;;;;;;;;;;18.20;97.80;;;;;;7588685;19;20276;-77
2023/10/04 11:09:54;;;;;;;;;;;18.20;98.10;;;;;;7586003;19;19927;-77
2023/10/04 11:12:26;;;;;;;;;;;18.40;98.20;;;;;;7584190;19;19926;-80
2023/10/04 11:15:00;;;;;;;;;;;18.40;97.60;;;;;;7580541;19;19961;-79
2023/10/04 11:17:35;;;;;;;;;;;18.50;97.40;;;;;;7569231;19;20359;-79
2023/10/04 11:20:10;;;;;;;;;;;18.70;96.60;;;;;;7588303;19;19921;-78
2023/10/04 11:22:44;;;;;;;;;;;19.30;96.50;;;;;;7587797;19;19923;-78
2023/10/04 11:25:19;;;;;;;;;;;19.80;96.40;;;;;;7561423;19;19923;-77
2023/10/04 11:27:53;;;;;;;;;;;21.40;94.40;;;;;;7561220;19;19919;-78
2023/10/04 11:30:27;;;;;;;;;;;23.20;90.60;;;;;;7570927;19;19914;-77
2023/10/04 11:33:00;;;;;;;;;;;24.50;85.70;;;;;;7570484;19;19919;-82
2023/10/04 11:35:32;;;;;;;;;;;25.20;81.40;;;;;;7589722;19;19936;-81
2023/10/04 11:38:12;;;;;;;;;;;25.70;75.20;;;;;;7573572;19;19910;-79
2023/10/04 11:40:48;;;;;;;;;;;25.80;72.40;;;;;;7586997;19;19922;-77
2023/10/04 11:43:24;;;;;;;;;;;26.10;70.20;;;;;;7582479;19;19923;-79
2023/10/04 11:46:00;;;;;;;;;;;26.40;65.90;;;;;;7555951;19;19926;-79
2023/10/04 11:48:32;;;;;;;;;;;25.30;67.20;;;;;;7594153;19;19915;-78
2023/10/04 11:51:06;;;;;;;;;;;25.80;67.60;;;;;;7562677;19;20516;-77
2023/10/04 11:53:38;;;;;;;;;;;26.70;63.90;;;;;;7548055;19;19937;-78
2023/10/04 11:56:11;;;;;;;;;;;27.40;64.40;;;;;;7555352;19;19911;-77
2023/10/04 11:58:43;;;;;;;;;;;27.40;62.70;;;;;;7592045;19;19929;-79
2023/10/04 12:01:20;;;;;;;;;;;26.40;61.80;;;;;;7585223;19;19990;-78
2023/10/04 12:03:56;;;;;;;;;;;26.00;61.80;;;;;;7587761;19;19922;-78
2023/10/04 12:06:30;;;;;;;;;;;23.60;65.30;;;;;;7576626;19;19994;-78
2023/10/04 12:09:06;;;;;;;;;;;23.10;69.80;;;;;;7582056;19;20751;-78
2023/10/04 12:11:39;;;;;;;;;;;23.80;68.60;;;;;;7586822;19;19927;-76
2023/10/04 12:14:11;;;;;;;;;;;24.70;65.20;;;;;;7585240;19;19988;-78
2023/10/04 12:16:43;;;;;;;;;;;25.60;63.00;;;;;;7582461;19;19956;-77
2023/10/04 12:19:16;;;;;;;;;;;25.70;63.90;;;;;;7585943;19;21925;-78
2023/10/04 12:21:49;;;;;;;;;;;25.30;63.80;;;;;;7582503;19;19919;-79
2023/10/04 12:24:22;;;;;;;;;;;24.60;67.20;;;;;;7584344;19;19933;-80
2023/10/04 12:26:55;;;;;;;;;;;24.20;67.50;;;;;;7590781;19;20011;-78
2023/10/04 12:29:27;;;;;;;;;;;24.20;69.20;;;;;;7586272;19;20295;-77
2023/10/04 12:31:59;;;;;;;;;;;23.90;67.80;;;;;;7583302;19;19915;-78
2023/10/04 12:34:32;;;;;;;;;;;23.10;69.30;;;;;;7590704;19;19926;-78
2023/10/04 12:37:04;;;;;;;;;;;22.60;72.00;;;;;;7584710;19;21342;-76
2023/10/04 12:39:38;;;;;;;;;;;22.30;72.60;;;;;;7580338;19;19919;-78
2023/10/04 12:42:11;;;;;;;;;;;21.90;73.40;;;;;;7556294;19;19921;-78
2023/10/04 12:44:43;;;;;;;;;;;21.50;73.40;;;;;;7575553;19;19929;-77
2023/10/04 12:47:15;;;;;;;;;;;20.60;75.30;;;;;;7588982;19;20315;-78
2023/10/04 12:49:47;;;;;;;;;;;;;;;;;;7588162;19;20279;-78
2023/10/04 12:52:20;;;;;;;;;;;21.20;74.10;;;;;;7583678;19;19934;-77
2023/10/04 12:54:53;;;;;;;;;;;25.20;63.30;;;;;;7579933;19;19925;-77
2023/10/04 12:57:25;;;;;;;;;;;;;;;;;;7579546;19;19923;-77
2023/10/04 12:59:58;;;;;;;;;;;;;;;;;;7584055;19;19927;-78
2023/10/04 13:02:32;;;;;;;;;;;;;;;;;;7585717;19;19934;-77
2023/10/04 13:05:07;;;;;;;;;;;;;;;;;;7582213;19;19929;-76
2023/10/04 13:07:40;;;;;;;;;;;;;;;;;;7585644;19;19941;-76
2023/10/04 13:10:17;;;;;;;;;;;;;;;;;;7593690;19;19926;-77
2023/10/04 13:12:49;;;;;;;;;;;;;;;;;;7594076;19;19922;-77
2023/10/04 13:15:22;;;;;;;;;;;;;;;;;;7580317;19;20874;-77
2023/10/04 13:17:55;;;;;;;;;;;;;;;;;;7588509;19;20526;-78
2023/10/04 13:20:28;;;;;;;;;;;25.60;64.40;;;;;;7586946;19;20104;-76
2023/10/04 13:23:01;;;;;;;;;;;29.10;53.50;;;;;;7589513;19;20508;-77
2023/10/04 13:25:33;;;;;;;;;;;26.70;57.40;;;;;;7570514;19;19926;-78
2023/10/04 13:28:06;;;;;;;;;;;24.90;61.20;;;;;;7574021;19;19925;-76
2023/10/04 13:30:38;;;;;;;;;;;24.90;60.10;;;;;;7591222;19;19919;-79
2023/10/04 13:33:11;;;;;;;;;;;;;;;;;;7580606;19;19925;-75
2023/10/04 13:35:43;;;;;;;;;;;;;;;;;;7581261;19;19915;-76
2023/10/04 13:38:18;;;;;;;;;;;;;;;;;;7579298;19;19942;-76
2023/10/04 13:40:51;;;;;;;;;;;;;;;;;;7582360;19;20563;-76
2023/10/04 13:43:24;;;;;;;;;;;;;;;;;;7576432;19;19923;-76
2023/10/04 13:45:57;;;;;;;;;;;;;;;;;;7585789;19;20029;-76
2023/10/04 13:48:29;;;;;;;;;;;;;;;;;;7580242;19;19927;-75
2023/10/04 13:51:02;;;;;;;;;;;;;;;;;;7582582;19;20380;-78
2023/10/04 13:53:35;;;;;;;;;;;26.70;58.70;;;;;;7577127;19;19933;-75
2023/10/04 13:56:08;;;;;;;;;;;31.80;50.10;;;;;;7579081;19;19922;-77
2023/10/04 13:58:40;;;;;;;;;;;30.40;51.00;;;;;;7579070;19;25260;-76
2023/10/04 14:01:14;;;;;;;;;;;29.00;53.30;;;;;;7581724;19;20009;-75
2023/10/04 14:03:47;;;;;;;;;;;29.80;53.10;;;;;;7591816;19;19926;-75
2023/10/04 14:06:19;;;;;;;;;;;27.50;54.90;;;;;;7579835;19;20296;-74
2023/10/04 14:08:52;;;;;;;;;;;25.60;58.30;;;;;;7579742;19;20786;-74
2023/10/04 14:11:24;;;;;;;;;;;24.30;61.00;;;;;;7580670;19;20773;-75
2023/10/04 14:13:56;;;;;;;;;;;23.50;63.30;;;;;;7585991;19;20340;-74
2023/10/04 14:16:29;;;;;;;;;;;24.00;64.20;;;;;;7583515;19;19918;-73
2023/10/04 14:19:02;;;;;;;;;;;24.80;61.00;;;;;;7582161;19;19930;-77
2023/10/04 14:21:35;;;;;;;;;;;23.90;61.50;;;;;;7589654;19;20501;-76
2023/10/04 14:24:07;;;;;;;;;;;26.30;60.20;;;;;;7581465;19;19919;-76
2023/10/04 14:26:39;;;;;;;;;;;28.10;57.40;;;;;;7571033;19;19918;-78
2023/10/04 14:29:11;;;;;;;;;;;29.20;55.20;;;;;;7568527;19;19925;-77
2023/10/04 14:31:44;;;;;;;;;;;;;;;;;;7578703;19;20009;-78
2023/10/04 14:34:16;;;;;;;;;;;29.20;54.70;;;;;;7571630;19;19926;-78
2023/10/04 14:36:48;;;;;;;;;;;28.50;53.70;;;;;;7583904;19;19956;-75
2023/10/04 14:39:23;;;;;;;;;;;26.20;56.50;;;;;;7574686;19;20254;-75
2023/10/04 14:41:55;;;;;;;;;;;25.00;58.10;;;;;;7578564;19;19922;-77
2023/10/04 14:44:28;;;;;;;;;;;23.70;62.00;;;;;;7583527;19;19926;-76
2023/10/04 14:47:00;;;;;;;;;;;22.70;62.40;;;;;;7585701;19;19914;-77
2023/10/04 14:49:32;;;;;;;;;;;21.80;64.80;;;;;;7577600;19;20428;-79
2023/10/04 14:52:04;;;;;;;;;;;21.70;65.60;;;;;;7579176;19;21246;-77
2023/10/04 14:54:37;;;;;;;;;;;21.60;67.40;;;;;;7572657;19;19942;-77
2023/10/04 14:57:09;;;;;;;;;;;21.40;66.60;;;;;;7581766;19;19923;-78
2023/10/04 14:59:41;;;;;;;;;;;21.20;67.60;;;;;;7582320;19;19998;-79
2023/10/04 15:02:14;;;;;;;;;;;21.10;69.60;;;;;;7574452;19;19929;-77
2023/10/04 15:04:46;;;;;;;;;;;20.70;68.30;;;;;;7593234;19;19927;-76
2023/10/04 15:07:20;;;;;;;;;;;20.50;69.20;;;;;;7570660;19;20023;-76